This is the latest recevied weather packets stored in our database for station/object HS5FXK-3. If no packets are shown the sender has not sent any weather packets the latest 10 day(s).
| Time | Temp. | Humidity | Pressure | Rain* | Wind** | Luminosity | Snow |
|---|---|---|---|---|---|---|---|
| 1777861912 | 36.11° C | 42% | 980 hPa | - | - | 0 W/m² | - |
| 1777861733 | 35.56° C | 42% | 980 hPa | - | - | 0 W/m² | - |
| 1777860822 | 35° C | 44% | 980 hPa | - | - | 0 W/m² | - |
| 1777859908 | 34.44° C | 47% | 980 hPa | - | - | 0 W/m² | - |
| 1777858729 | 33.33° C | 50% | 980 hPa | - | - | 0 W/m² | - |
| 1777857817 | 32.22° C | 55% | 980 hPa | - | - | 0 W/m² | - |
| 1777856926 | 31.11° C | 57% | 980 hPa | - | - | 0 W/m² | - |
| 1777856228 | 31.11° C | 62% | 980 hPa | - | - | 0 W/m² | - |
| 1777855315 | 30° C | 66% | 980 hPa | - | - | 0 W/m² | - |
| 1777854611 | 29.44° C | 71% | 980 hPa | - | - | 0 W/m² | - |
| 1777853698 | 28.33° C | 76% | 979 hPa | - | - | 0 W/m² | - |
| 1777852786 | 27.78° C | 81% | 979 hPa | - | - | 0 W/m² | - |
| 1777851874 | 27.78° C | 82% | 979 hPa | - | - | 0 W/m² | - |
| 1777850962 | 27.78° C | 81% | 979 hPa | - | - | 0 W/m² | - |
| 1777850050 | 27.22° C | 81% | 979 hPa | - | - | 0 W/m² | - |
| 1777849137 | 27.22° C | 80% | 979 hPa | - | - | 0 W/m² | - |
| 1777848225 | 27.22° C | 80% | 979 hPa | - | - | 0 W/m² | - |
| 1777847313 | 27.78° C | 77% | 979 hPa | - | - | 0 W/m² | - |
| 1777846401 | 27.78° C | 77% | 978 hPa | - | - | 0 W/m² | - |
| 1777845489 | 27.78° C | 75% | 978 hPa | - | - | 0 W/m² | - |
| 1777844576 | 27.78° C | 74% | 978 hPa | - | - | 0 W/m² | - |
| 1777843741 | 27.78° C | 74% | 978 hPa | - | - | 0 W/m² | - |
| 1777843246 | 27.78° C | 73% | 978 hPa | - | - | 0 W/m² | - |
| 1777842334 | 27.78° C | 72% | 977 hPa | - | - | 0 W/m² | - |
| 1777841421 | 27.78° C | 72% | 977 hPa | - | - | 0 W/m² | - |
* Rain since midnight (hover to see other rain measurements)
** Current wind speed in m/s (hover to see current wind gust speed)